Time;durP1;ratioP1;P1;durP2;ratioP2;P2;SDS_P1;SDS_P2;PMS_P1;PMS_P2;Temp;Humidity;BMP_temperature;BMP_pressure;BME280_temperature;BME280_humidity;BME280_pressure;Samples;Min_cycle;Max_cycle;Signal;HPM_P1;HPM_P2
2023/02/14 00:00:21;;;;;;;51.77;18.43;;;1.70;99.90;;;;;;4956304;28;20020;-66
2023/02/14 00:02:47;;;;;;;39.55;17.75;;;1.80;99.90;;;;;;4954094;28;20032;-66
2023/02/14 00:05:13;;;;;;;32.22;14.82;;;2.00;99.90;;;;;;4953582;28;20025;-66
2023/02/14 00:07:39;;;;;;;34.13;14.43;;;2.10;99.90;;;;;;4955020;28;20040;-67
2023/02/14 00:10:05;;;;;;;50.67;21.80;;;2.20;99.90;;;;;;4954788;28;20079;-67
2023/02/14 00:12:30;;;;;;;45.03;20.75;;;2.40;99.90;;;;;;4938735;28;20056;-67
2023/02/14 00:17:41;;;;;;;50.38;21.85;;;2.50;99.90;;;;;;4952135;28;20082;-67
2023/02/14 00:20:07;;;;;;;55.67;20.03;;;2.50;99.90;;;;;;4954656;28;20025;-66
2023/02/14 00:22:32;;;;;;;41.73;18.07;;;2.60;99.90;;;;;;4955684;28;23882;-67
2023/02/14 00:24:58;;;;;;;51.30;19.40;;;2.50;99.90;;;;;;4952700;28;20169;-66
2023/02/14 00:27:24;;;;;;;38.43;14.67;;;2.50;99.90;;;;;;4951505;28;20402;-66
2023/02/14 00:29:49;;;;;;;30.33;12.70;;;2.40;99.90;;;;;;4955042;28;20021;-68
2023/02/14 00:32:15;;;;;;;42.77;17.53;;;2.20;99.90;;;;;;4953526;28;20020;-67
2023/02/14 00:34:41;;;;;;;32.67;15.30;;;2.20;99.90;;;;;;4953297;28;23974;-68
2023/02/14 00:37:06;;;;;;;52.07;21.73;;;2.10;99.90;;;;;;4952950;28;20156;-68
2023/02/14 00:39:32;;;;;;;51.60;21.20;;;2.10;99.90;;;;;;4954114;28;20103;-67
2023/02/14 00:41:58;;;;;;;58.87;23.30;;;2.10;99.90;;;;;;4953121;28;20017;-73
2023/02/14 00:44:23;;;;;;;56.87;24.07;;;2.10;99.90;;;;;;4953308;28;20029;-66
2023/02/14 00:46:49;;;;;;;48.17;19.37;;;2.20;99.90;;;;;;4953351;28;20111;-67
2023/02/14 00:49:15;;;;;;;65.57;25.43;;;2.50;99.90;;;;;;4951435;28;20514;-68
2023/02/14 00:51:41;;;;;;;46.30;19.37;;;2.70;99.90;;;;;;4934629;28;20639;-67
2023/02/14 00:54:07;;;;;;;67.93;26.50;;;2.80;99.90;;;;;;4953481;28;20162;-68
2023/02/14 00:56:32;;;;;;;65.53;24.93;;;2.90;99.90;;;;;;4955098;28;20362;-66
2023/02/14 00:58:58;;;;;;;82.50;30.80;;;3.00;99.90;;;;;;4952839;28;20527;-67
2023/02/14 01:01:24;;;;;;;69.33;28.33;;;3.10;99.90;;;;;;4953053;28;20425;-66
2023/02/14 01:03:50;;;;;;;53.30;19.77;;;3.20;99.90;;;;;;4953132;28;20027;-67
2023/02/14 01:06:15;;;;;;;46.83;19.93;;;3.20;99.90;;;;;;4952066;28;22116;-68
2023/02/14 01:08:41;;;;;;;48.27;19.73;;;3.20;99.90;;;;;;4953191;28;20035;-68
2023/02/14 01:11:16;;;;;;;62.53;25.30;;;3.20;99.90;;;;;;4938192;28;20116;-67
2023/02/14 01:13:43;;;;;;;60.13;25.35;;;3.20;99.90;;;;;;4955259;28;20102;-66
2023/02/14 01:16:12;;;;;;;62.20;25.40;;;3.20;99.90;;;;;;4955479;28;20026;-67
2023/02/14 01:18:38;;;;;;;62.30;24.52;;;3.00;99.90;;;;;;4954609;28;20040;-67
2023/02/14 01:21:12;;;;;;;83.65;23.02;;;2.90;99.90;;;;;;4953801;28;20453;-67
2023/02/14 01:23:38;;;;;;;53.08;21.35;;;2.60;99.90;;;;;;4956482;28;20056;-67
2023/02/14 01:26:06;;;;;;;54.60;21.33;;;2.50;99.90;;;;;;4955190;28;20805;-67
2023/02/14 01:28:32;;;;;;;106.85;23.17;;;2.50;99.90;;;;;;4955963;28;20909;-67
2023/02/14 01:31:04;;;;;;;49.53;20.73;;;2.40;99.90;;;;;;4952486;28;20062;-66
2023/02/14 01:33:30;;;;;;;43.50;19.10;;;2.40;99.90;;;;;;4957395;28;20043;-67
2023/02/14 01:35:55;;;;;;;35.23;16.03;;;2.40;99.90;;;;;;4956630;28;21430;-67
2023/02/14 01:38:21;;;;;;;50.03;20.60;;;2.30;99.90;;;;;;4957232;28;20029;-66
2023/02/14 01:40:46;;;;;;;54.83;22.70;;;2.30;99.90;;;;;;4956946;28;20651;-67
2023/02/14 01:43:14;;;;;;;48.57;20.50;;;2.20;99.90;;;;;;4958027;28;20033;-67
2023/02/14 01:45:40;;;;;;;52.42;20.92;;;2.10;99.90;;;;;;4955836;28;20029;-67
2023/02/14 01:48:07;;;;;;;56.53;22.90;;;2.10;99.90;;;;;;4955597;28;21075;-67
2023/02/14 01:50:40;;;;;;;;;;;2.00;99.90;;;;;;4956857;28;23524;-68
2023/02/14 01:53:11;;;;;;;49.92;18.65;;;2.00;99.90;;;;;;4958774;28;20017;-67
2023/02/14 01:55:42;;;;;;;43.00;18.83;;;1.90;99.90;;;;;;4959377;28;20234;-67
2023/02/14 01:58:12;;;;;;;51.03;19.25;;;1.90;99.90;;;;;;4956193;28;20025;-67
2023/02/14 02:00:58;;;;;;;56.72;19.73;;;2.00;99.90;;;;;;4955716;28;20395;-68
2023/02/14 02:03:57;;;;;;;50.70;20.93;;;2.00;99.90;;;;;;4956280;28;20059;-67
2023/02/14 02:06:31;;;;;;;57.88;22.80;;;2.10;99.90;;;;;;4951088;28;20459;-67
2023/02/14 02:09:20;;;;;;;59.60;22.33;;;2.20;99.90;;;;;;4956009;28;20173;-68
2023/02/14 02:11:46;;;;;;;58.00;22.63;;;2.30;99.90;;;;;;4957171;28;20031;-68
2023/02/14 02:14:15;;;;;;;68.07;24.38;;;2.50;99.90;;;;;;4954634;28;20078;-68
2023/02/14 02:16:59;;;;;;;70.18;25.05;;;2.60;99.90;;;;;;4938679;28;20461;-67
2023/02/14 02:20:00;;;;;;;57.35;22.52;;;2.70;99.90;;;;;;4956952;28;20399;-74
2023/02/14 02:23:00;;;;;;;57.17;23.20;;;2.70;99.90;;;;;;4938185;28;20021;-67
2023/02/14 02:25:45;;;;;;;57.08;21.27;;;2.70;99.90;;;;;;4956848;28;20048;-68
2023/02/14 02:28:37;;;;;;;56.55;20.70;;;2.70;99.90;;;;;;4955010;28;20021;-67
2023/02/14 02:31:21;;;;;;;49.80;21.10;;;2.60;99.90;;;;;;4953761;28;20796;-67
2023/02/14 02:34:24;;;;;;;55.70;21.77;;;2.60;99.90;;;;;;4956947;28;20132;-67
2023/02/14 02:37:14;;;;;;;43.33;18.45;;;2.60;99.90;;;;;;4956886;28;20024;-67
2023/02/14 02:39:57;;;;;;;45.80;17.88;;;2.50;99.90;;;;;;4938274;28;20043;-67
2023/02/14 02:42:50;;;;;;;315.50;25.98;;;2.40;99.90;;;;;;4938404;28;20873;-67
2023/02/14 02:45:31;;;;;;;39.92;18.02;;;2.30;99.90;;;;;;4957317;28;20162;-69
2023/02/14 02:48:15;;;;;;;47.05;18.65;;;2.20;99.90;;;;;;4956088;28;20025;-68
2023/02/14 02:53:38;;;;;;;38.90;17.67;;;2.10;99.90;;;;;;4955558;28;20771;-67
2023/02/14 02:56:54;;;;;;;39.60;16.88;;;2.10;99.90;;;;;;4956213;28;20031;-67
2023/02/14 02:59:05;;;;;;;43.70;16.73;;;2.10;99.90;;;;;;4946582;28;20032;-70
2023/02/14 03:01:36;;;;;;;83.25;17.35;;;1.90;99.90;;;;;;4953714;28;20049;-68
2023/02/14 03:06:51;;;;;;;43.03;16.50;;;1.90;99.90;;;;;;4954769;28;20979;-67
2023/02/14 03:09:22;;;;;;;44.35;18.50;;;1.90;99.90;;;;;;4954459;28;20036;-68
2023/02/14 03:12:01;;;;;;;40.17;16.90;;;1.80;99.90;;;;;;4951844;28;20058;-68
2023/02/14 03:14:58;;;;;;;39.55;16.90;;;1.80;99.90;;;;;;4954119;28;20538;-67
2023/02/14 03:17:36;;;;;;;43.83;17.48;;;1.70;99.90;;;;;;4935324;28;20074;-68
2023/02/14 03:20:22;;;;;;;49.17;19.25;;;1.80;99.90;;;;;;4953979;28;20547;-69
2023/02/14 03:23:28;;;;;;;53.80;20.98;;;1.70;99.90;;;;;;4955929;28;20020;-67
2023/02/14 03:26:10;;;;;;;44.97;19.38;;;1.80;99.90;;;;;;4950943;28;20036;-68
2023/02/14 03:28:43;;;;;;;45.70;19.23;;;2.00;99.90;;;;;;4953495;28;20082;-67
2023/02/14 03:31:12;;;;;;;42.30;18.38;;;2.10;99.90;;;;;;4936113;28;20478;-67
2023/02/14 03:34:02;;;;;;;47.28;18.23;;;2.20;99.90;;;;;;4952006;28;21523;-67
2023/02/14 03:36:38;;;;;;;48.28;17.58;;;2.30;99.90;;;;;;4952375;28;21128;-67
2023/02/14 03:39:23;;;;;;;55.33;20.35;;;2.40;99.90;;;;;;4956378;28;20020;-67
2023/02/14 03:42:04;;;;;;;48.22;18.30;;;2.40;99.90;;;;;;4951740;28;20327;-68
2023/02/14 03:44:33;;;;;;;48.47;18.38;;;2.40;99.90;;;;;;4936168;28;20509;-68
2023/02/14 03:47:22;;;;;;;46.33;20.08;;;2.40;99.90;;;;;;4951203;28;20965;-67
2023/02/14 03:49:57;;;;;;;37.80;16.08;;;2.40;99.90;;;;;;4952910;28;22165;-68
2023/02/14 03:52:25;;;;;;;29.47;12.03;;;2.20;99.90;;;;;;4953695;28;20026;-67
2023/02/14 03:54:55;;;;;;;35.10;15.60;;;2.20;99.90;;;;;;4937788;28;20127;-67
2023/02/14 03:57:48;;;;;;;36.70;15.38;;;2.10;99.90;;;;;;4955988;28;20511;-71
2023/02/14 04:00:14;;;;;;;52.10;15.55;;;2.00;99.90;;;;;;4956418;28;20474;-67
2023/02/14 04:02:45;;;;;;;33.63;14.55;;;2.00;99.90;;;;;;4956243;28;20025;-73
2023/02/14 04:05:21;;;;;;;32.35;12.93;;;1.90;99.90;;;;;;4953923;28;21134;-68
2023/02/14 04:07:53;;;;;;;25.02;13.02;;;1.80;99.90;;;;;;4951310;28;20017;-68
2023/02/14 04:10:19;;;;;;;52.03;13.00;;;1.70;99.90;;;;;;4935551;28;23599;-67
2023/02/14 04:12:45;;;;;;;250.63;19.70;;;1.60;99.90;;;;;;4952353;28;20069;-68
2023/02/14 04:15:11;;;;;;;120.27;15.50;;;1.60;99.90;;;;;;4950506;28;20029;-67
2023/02/14 04:20:21;;;;;;;20.73;9.55;;;1.40;99.90;;;;;;4953040;28;20112;-67
2023/02/14 04:22:47;;;;;;;29.97;8.60;;;1.30;99.90;;;;;;4952115;28;20029;-68
2023/02/14 04:25:14;;;;;;;203.18;14.43;;;1.30;99.90;;;;;;4952128;28;20033;-71
2023/02/14 04:27:39;;;;;;;17.85;8.98;;;1.20;99.90;;;;;;4953187;28;20120;-68
2023/02/14 04:30:06;;;;;;;72.20;10.93;;;1.10;99.90;;;;;;4953401;28;20025;-67
2023/02/14 04:32:31;;;;;;;98.05;12.77;;;1.10;99.90;;;;;;4951632;28;20070;-67
2023/02/14 04:34:57;;;;;;;27.33;10.13;;;1.00;99.90;;;;;;4954672;28;20872;-67
2023/02/14 04:37:23;;;;;;;30.37;8.10;;;0.90;99.90;;;;;;4951620;28;20380;-68
2023/02/14 04:39:48;;;;;;;127.60;13.23;;;0.90;99.90;;;;;;4954095;28;20113;-68
2023/02/14 04:42:14;;;;;;;230.10;16.27;;;0.90;99.90;;;;;;4952438;28;20025;-68
2023/02/14 04:44:40;;;;;;;75.13;11.10;;;0.90;99.90;;;;;;4935549;28;20029;-68
2023/02/14 04:47:07;;;;;;;82.60;12.13;;;0.90;99.90;;;;;;4951650;28;20031;-69
2023/02/14 04:49:33;;;;;;;443.05;24.10;;;0.80;99.90;;;;;;4933273;28;20045;-68
2023/02/14 04:51:59;;;;;;;179.13;14.57;;;0.90;99.90;;;;;;4952749;28;20048;-68
2023/02/14 04:54:25;;;;;;;302.90;17.83;;;0.90;99.90;;;;;;4951458;28;23833;-68
2023/02/14 04:56:51;;;;;;;282.47;14.73;;;0.90;99.90;;;;;;4935259;28;20435;-67
2023/02/14 04:59:16;;;;;;;321.23;16.67;;;1.00;99.90;;;;;;4953345;28;20381;-69
2023/02/14 05:01:42;;;;;;;221.73;15.70;;;1.00;99.90;;;;;;4954844;28;20394;-67
2023/02/14 05:04:08;;;;;;;453.63;22.20;;;1.10;99.90;;;;;;4952726;28;20024;-67
2023/02/14 05:06:34;;;;;;;500.38;23.77;;;1.00;99.90;;;;;;4950573;28;20017;-67
2023/02/14 05:09:00;;;;;;;157.57;14.47;;;1.00;99.90;;;;;;4955071;28;20025;-68
2023/02/14 05:11:27;;;;;;;199.05;11.18;;;0.90;99.90;;;;;;4951566;28;20032;-68
2023/02/14 05:13:53;;;;;;;341.60;16.45;;;0.80;99.90;;;;;;4951066;28;20097;-74
2023/02/14 05:16:19;;;;;;;437.03;20.57;;;0.80;99.90;;;;;;4951028;28;21021;-67
2023/02/14 05:18:44;;;;;;;303.93;18.17;;;0.80;99.90;;;;;;4950814;28;20021;-69
2023/02/14 05:21:10;;;;;;;236.27;12.53;;;0.90;99.90;;;;;;4954335;28;20063;-74
2023/02/14 05:23:36;;;;;;;414.90;19.10;;;0.90;99.90;;;;;;4952329;28;20033;-71
2023/02/14 05:26:03;;;;;;;521.90;25.50;;;0.90;99.90;;;;;;4952953;28;20789;-68
2023/02/14 05:28:28;;;;;;;526.63;25.08;;;0.80;99.90;;;;;;4952766;28;20029;-75
2023/02/14 05:30:55;;;;;;;231.00;16.30;;;0.60;99.90;;;;;;4952812;28;20032;-76
2023/02/14 05:33:21;;;;;;;;;;;0.60;99.90;;;;;;4934342;28;20035;-68
2023/02/14 05:35:47;;;;;;;510.95;24.38;;;0.50;99.90;;;;;;4953449;28;19913;-68
2023/02/14 05:38:13;;;;;;;353.77;21.13;;;0.60;99.90;;;;;;4951704;28;20033;-67
2023/02/14 05:40:40;;;;;;;337.23;19.03;;;0.60;99.90;;;;;;4950244;28;20161;-68
2023/02/14 05:43:06;;;;;;;193.82;14.25;;;0.50;99.90;;;;;;4952248;28;20386;-67
2023/02/14 05:45:32;;;;;;;101.43;12.37;;;0.60;99.90;;;;;;4952367;28;20055;-68
2023/02/14 05:47:57;;;;;;;251.97;14.43;;;0.60;99.90;;;;;;4952513;28;20027;-67
2023/02/14 05:50:23;;;;;;;40.63;9.70;;;0.60;99.90;;;;;;4953910;28;20032;-67
2023/02/14 05:52:49;;;;;;;133.87;13.40;;;0.60;99.90;;;;;;4950893;28;20709;-68
2023/02/14 05:55:15;;;;;;;109.80;12.73;;;0.50;99.90;;;;;;4955709;28;20025;-73
2023/02/14 05:57:40;;;;;;;311.50;17.40;;;0.50;99.90;;;;;;4954222;28;20020;-67
2023/02/14 06:00:07;;;;;;;106.53;16.83;;;0.40;99.90;;;;;;4954693;28;20353;-68
2023/02/14 06:02:33;;;;;;;293.60;20.20;;;0.40;99.90;;;;;;4955441;28;20768;-68
2023/02/14 06:04:59;;;;;;;65.93;13.73;;;0.30;99.90;;;;;;4952455;28;20032;-68
2023/02/14 06:07:24;;;;;;;594.87;30.40;;;0.30;99.90;;;;;;4950551;28;20051;-68
2023/02/14 06:09:50;;;;;;;389.93;19.50;;;0.50;99.90;;;;;;4954802;28;20025;-72
2023/02/14 06:12:16;;;;;;;363.00;22.20;;;0.50;99.90;;;;;;4956906;28;20025;-68
2023/02/14 06:14:41;;;;;;;216.13;12.67;;;0.60;99.90;;;;;;4939505;28;20033;-67
2023/02/14 06:17:08;;;;;;;257.87;16.93;;;0.80;99.90;;;;;;4955401;28;20741;-72
2023/02/14 06:19:34;;;;;;;192.90;12.98;;;0.90;99.90;;;;;;4954372;28;20036;-76
2023/02/14 06:22:00;;;;;;;208.43;11.65;;;0.80;99.90;;;;;;4958061;28;20059;-69
2023/02/14 06:24:26;;;;;;;355.13;18.40;;;0.80;99.90;;;;;;4954260;28;20054;-67
2023/02/14 06:26:51;;;;;;;145.83;14.80;;;0.80;99.90;;;;;;4956127;28;20021;-68
2023/02/14 06:29:17;;;;;;;60.57;8.90;;;0.90;99.90;;;;;;4956264;28;20758;-68
2023/02/14 06:31:43;;;;;;;73.80;8.67;;;0.90;99.90;;;;;;4954708;28;20585;-68
2023/02/14 06:34:09;;;;;;;149.47;15.67;;;0.90;99.90;;;;;;4936364;28;20763;-69
2023/02/14 06:36:34;;;;;;;160.37;16.97;;;0.90;99.90;;;;;;4953093;28;20654;-74
2023/02/14 06:39:00;;;;;;;214.23;16.63;;;0.70;99.90;;;;;;4954355;28;20051;-75
2023/02/14 06:41:25;;;;;;;200.87;16.20;;;0.50;99.90;;;;;;4955152;28;20427;-69
2023/02/14 06:43:51;;;;;;;227.20;17.93;;;0.30;99.90;;;;;;4951313;28;20028;-75
2023/02/14 06:46:18;;;;;;;253.03;17.67;;;0.30;99.90;;;;;;4927162;28;20113;-67
2023/02/14 06:48:44;;;;;;;195.48;16.92;;;0.20;99.90;;;;;;4946315;28;20083;-76
2023/02/14 06:51:10;;;;;;;117.30;13.57;;;0.20;99.90;;;;;;4926982;28;20039;-74
2023/02/14 06:53:36;;;;;;;391.67;25.65;;;0.20;99.90;;;;;;4945356;28;20028;-75
2023/02/14 06:56:02;;;;;;;275.47;16.50;;;0.20;99.90;;;;;;4944670;28;20033;-75
2023/02/14 06:58:28;;;;;;;322.27;23.65;;;0.30;99.90;;;;;;4926124;28;20059;-67
2023/02/14 07:00:55;;;;;;;479.50;27.03;;;0.30;99.90;;;;;;4928375;28;20106;-74
2023/02/14 07:03:21;;;;;;;208.80;14.40;;;0.30;99.90;;;;;;4943359;28;20026;-68
2023/02/14 07:05:46;;;;;;;147.63;14.17;;;0.40;99.90;;;;;;4940823;28;20094;-76
2023/02/14 07:08:12;;;;;;;180.77;17.57;;;0.50;99.90;;;;;;4940869;28;20431;-76
2023/02/14 07:10:37;;;;;;;215.83;15.77;;;0.50;99.90;;;;;;4947168;28;20024;-71
2023/02/14 07:13:04;;;;;;;208.77;16.43;;;0.40;99.90;;;;;;4928746;28;21667;-68
2023/02/14 07:15:30;;;;;;;183.18;15.02;;;0.40;99.90;;;;;;4929046;28;20959;-68
2023/02/14 07:17:56;;;;;;;108.40;13.50;;;0.40;99.90;;;;;;4941232;28;20029;-76
2023/02/14 07:20:21;;;;;;;129.63;14.93;;;0.60;99.90;;;;;;4943426;28;20031;-68
2023/02/14 07:22:47;;;;;;;142.70;15.93;;;0.60;99.90;;;;;;4938097;28;20028;-69
2023/02/14 07:25:13;;;;;;;39.03;14.40;;;0.70;99.90;;;;;;4920706;28;20061;-67
2023/02/14 07:27:39;;;;;;;44.23;15.30;;;0.80;99.90;;;;;;4923321;28;20056;-73
2023/02/14 07:30:06;;;;;;;40.80;16.83;;;0.90;99.90;;;;;;4923747;28;20031;-67
2023/02/14 07:32:32;;;;;;;49.25;16.02;;;1.00;99.90;;;;;;4943002;28;20075;-68
2023/02/14 07:34:57;;;;;;;97.17;13.13;;;1.00;99.90;;;;;;4945125;28;20450;-67
2023/02/14 07:37:23;;;;;;;62.83;16.20;;;1.10;99.90;;;;;;4941451;28;20136;-67
2023/02/14 07:39:49;;;;;;;45.73;13.30;;;1.10;99.90;;;;;;4934703;28;20105;-75
2023/02/14 07:42:14;;;;;;;93.67;16.40;;;1.20;99.90;;;;;;4952113;28;20039;-69
2023/02/14 07:44:41;;;;;;;30.20;10.93;;;1.30;99.90;;;;;;4956093;28;20025;-69
2023/02/14 07:47:07;;;;;;;32.65;13.07;;;1.50;99.90;;;;;;4942048;28;20031;-68
2023/02/14 07:49:33;;;;;;;51.00;12.90;;;1.60;99.90;;;;;;4936209;28;20374;-68
2023/02/14 07:51:59;;;;;;;53.53;14.57;;;1.60;99.90;;;;;;4942402;28;20035;-75
2023/02/14 07:54:25;;;;;;;32.50;10.47;;;1.60;99.90;;;;;;4944653;28;20119;-68
2023/02/14 07:56:51;;;;;;;44.70;13.90;;;1.70;99.90;;;;;;4946384;28;23599;-75
2023/02/14 07:59:17;;;;;;;34.90;14.80;;;1.90;99.90;;;;;;4945650;28;20043;-72
2023/02/14 08:01:42;;;;;;;66.43;16.97;;;2.10;99.90;;;;;;4944566;28;20722;-72
2023/02/14 08:04:08;;;;;;;50.03;20.83;;;2.30;99.90;;;;;;4948048;28;20035;-76
2023/02/14 08:06:34;;;;;;;57.60;28.23;;;2.50;99.90;;;;;;4944827;28;20021;-68
2023/02/14 08:09:00;;;;;;;57.57;23.33;;;2.80;99.90;;;;;;4943993;28;20112;-73
2023/02/14 08:14:10;;;;;;;49.22;20.10;;;2.70;99.90;;;;;;4945943;28;20043;-66
2023/02/14 08:16:37;;;;;;;58.43;24.53;;;2.80;99.90;;;;;;5020796;28;20029;-75
2023/02/14 08:19:03;;;;;;;57.17;27.52;;;2.80;99.90;;;;;;5040831;28;20059;-75
2023/02/14 08:21:29;;;;;;;55.25;26.33;;;2.80;99.90;;;;;;5019276;28;20036;-75
2023/02/14 08:23:55;;;;;;;47.00;19.53;;;2.90;99.90;;;;;;5053555;28;20124;-70
2023/02/14 08:26:20;;;;;;;44.97;19.37;;;2.90;99.90;;;;;;4961756;28;20306;-74
2023/02/14 08:28:46;;;;;;;43.53;20.13;;;3.00;99.90;;;;;;4936422;28;20449;-66
2023/02/14 08:31:28;;;;;;;48.90;19.13;;;3.10;99.90;;;;;;4936242;28;20112;-74
2023/02/14 08:33:53;;;;;;;41.00;19.13;;;3.10;99.90;;;;;;4938562;28;20334;-75
2023/02/14 08:36:19;;;;;;;45.90;19.90;;;3.20;99.90;;;;;;4941154;28;20029;-74
2023/02/14 08:38:48;;;;;;;53.63;23.60;;;3.20;99.90;;;;;;4936713;28;20048;-66
2023/02/14 08:41:16;;;;;;;38.00;17.75;;;3.30;99.90;;;;;;4917582;28;21406;-66
2023/02/14 08:43:42;;;;;;;40.78;20.20;;;3.40;99.90;;;;;;4935599;28;20025;-67
2023/02/14 08:46:11;;;;;;;44.33;21.67;;;3.40;99.90;;;;;;4936211;28;20051;-66
2023/02/14 08:48:37;;;;;;;43.35;19.83;;;3.50;99.90;;;;;;4936996;28;20331;-71
2023/02/14 08:51:07;;;;;;;46.20;20.88;;;3.50;99.90;;;;;;4938210;28;20133;-66
2023/02/14 08:53:33;;;;;;;40.20;19.33;;;3.60;99.90;;;;;;4934274;28;20773;-70
2023/02/14 08:56:07;;;;;;;48.17;22.33;;;3.70;99.90;;;;;;4919285;28;20785;-67
2023/02/14 08:58:34;;;;;;;49.28;22.67;;;3.90;99.90;;;;;;4939964;28;20020;-73
2023/02/14 09:01:01;;;;;;;60.13;23.80;;;4.70;99.90;;;;;;4934919;28;20085;-75
2023/02/14 09:03:27;;;;;;;63.65;26.40;;;5.80;99.90;;;;;;4935660;28;20769;-67
2023/02/14 09:05:52;;;;;;;56.33;23.97;;;6.00;99.90;;;;;;4936530;28;20037;-66
2023/02/14 09:08:18;;;;;;;51.77;22.70;;;5.80;99.90;;;;;;4939406;28;20114;-71
2023/02/14 09:10:44;;;;;;;52.40;23.80;;;5.70;99.90;;;;;;4938745;28;21825;-67
2023/02/14 09:13:09;;;;;;;44.80;21.37;;;5.50;99.90;;;;;;4936488;28;20056;-67
2023/02/14 09:15:35;;;;;;;54.37;23.07;;;5.30;99.90;;;;;;4938199;28;20052;-74
2023/02/14 09:18:01;;;;;;;55.43;21.87;;;5.30;99.90;;;;;;4922323;28;20108;-66
2023/02/14 09:20:26;;;;;;;49.57;22.70;;;5.20;99.90;;;;;;4937169;28;21260;-73
2023/02/14 09:22:55;;;;;;;52.77;22.90;;;5.20;99.90;;;;;;4923444;28;24334;-67
2023/02/14 09:25:21;;;;;;;52.33;23.73;;;5.20;99.90;;;;;;4919996;28;20045;-68
2023/02/14 09:27:47;;;;;;;56.40;26.23;;;5.50;99.90;;;;;;4935886;28;20843;-77
2023/02/14 09:30:14;;;;;;;68.40;28.53;;;6.10;99.90;;;;;;4939185;28;20082;-66
2023/02/14 09:32:39;;;;;;;68.38;29.27;;;6.80;99.90;;;;;;4924879;28;20121;-74
2023/02/14 09:40:34;;;;;;;43.60;21.58;;;8.30;99.90;;;;;;4944835;28;20040;-74
2023/02/14 09:43:06;;;;;;;48.10;21.23;;;8.80;99.90;;;;;;4941871;28;21239;-70
2023/02/14 09:45:32;;;;;;;46.40;20.75;;;8.90;99.90;;;;;;4928964;28;20116;-69
2023/02/14 09:48:06;;;;;;;47.72;21.83;;;8.90;99.90;;;;;;4945112;28;20022;-76
2023/02/14 09:50:39;;;;;;;48.15;21.80;;;9.30;99.90;;;;;;4952014;28;20029;-76
2023/02/14 09:53:29;;;;;;;43.58;20.83;;;9.50;99.90;;;;;;4938160;28;20021;-68
2023/02/14 09:56:19;;;;;;;40.03;20.38;;;9.90;99.90;;;;;;4945453;28;20064;-77
2023/02/14 09:58:49;;;;;;;37.92;19.70;;;10.10;99.90;;;;;;4932988;28;20811;-77
2023/02/14 10:01:26;;;;;;;46.97;22.25;;;10.00;99.90;;;;;;4949484;28;20024;-70
2023/02/14 10:03:52;;;;;;;45.53;21.30;;;10.00;99.90;;;;;;4949228;28;20103;-77
2023/02/14 10:06:46;;;;;;;48.20;22.97;;;10.10;99.90;;;;;;4947683;28;23312;-74
2023/02/14 10:09:35;;;;;;;50.47;22.20;;;10.30;99.90;;;;;;4950311;28;20115;-70
2023/02/14 10:12:02;;;;;;;48.58;24.15;;;10.20;99.90;;;;;;4944987;28;20029;-75
2023/02/14 10:14:35;;;;;;;47.67;23.05;;;10.20;99.90;;;;;;4946726;28;20996;-71
2023/02/14 10:17:14;;;;;;;49.53;25.02;;;10.10;99.90;;;;;;4946645;28;20096;-74
2023/02/14 10:19:47;;;;;;;52.95;24.27;;;10.30;99.90;;;;;;4947811;28;20025;-68
2023/02/14 10:22:22;;;;;;;51.42;23.63;;;10.20;99.90;;;;;;4947466;28;20044;-75
2023/02/14 10:25:00;;;;;;;47.38;24.17;;;10.30;99.90;;;;;;4947213;28;20068;-75
2023/02/14 10:27:29;;;;;;;45.53;22.40;;;10.30;99.90;;;;;;4948523;28;20021;-75
2023/02/14 10:29:55;;;;;;;52.55;24.33;;;10.20;99.90;;;;;;4928242;28;20029;-70
2023/02/14 10:32:35;;;;;;;46.47;23.23;;;10.30;99.90;;;;;;4912451;28;20040;-76
2023/02/14 10:35:26;;;;;;;46.78;23.77;;;10.20;99.90;;;;;;4927900;28;20033;-67
2023/02/14 10:38:13;;;;;;;51.40;25.63;;;10.10;99.90;;;;;;4935065;28;21376;-73
2023/02/14 10:41:10;;;;;;;48.05;23.13;;;10.10;99.90;;;;;;4945981;28;20021;-75
2023/02/14 10:43:56;;;;;;;44.47;21.88;;;10.10;99.90;;;;;;4928657;28;20078;-67
2023/02/14 10:47:01;;;;;;;53.13;25.45;;;10.10;99.90;;;;;;4945352;28;20029;-67
2023/02/14 10:49:46;;;;;;;50.80;23.67;;;10.10;99.90;;;;;;4837847;28;20729;-76
2023/02/14 10:52:16;;;;;;;45.85;23.00;;;10.00;99.90;;;;;;4849206;28;20050;-67
2023/02/14 10:54:44;;;;;;;47.53;22.58;;;10.00;99.90;;;;;;4909705;28;20055;-68
2023/02/14 10:57:19;;;;;;;50.80;22.67;;;10.10;99.90;;;;;;4946345;28;20044;-78
2023/02/14 10:59:51;;;;;;;49.33;22.17;;;10.10;99.90;;;;;;4955796;28;20047;-68
2023/02/14 11:02:22;;;;;;;51.83;23.58;;;10.10;99.90;;;;;;4953409;28;20091;-76
2023/02/14 11:04:48;;;;;;;50.70;21.88;;;10.10;99.90;;;;;;4950408;28;20016;-75
2023/02/14 11:07:16;;;;;;;42.95;22.08;;;10.20;99.90;;;;;;4928420;28;20017;-68
2023/02/14 11:09:43;;;;;;;50.00;22.40;;;10.30;99.90;;;;;;4947980;28;20025;-67
2023/02/14 11:12:09;;;;;;;48.30;22.60;;;10.30;99.90;;;;;;4946764;28;20506;-67
2023/02/14 11:14:37;;;;;;;45.58;21.23;;;10.40;99.90;;;;;;4948172;28;20053;-68
2023/02/14 11:17:29;;;;;;;44.92;21.48;;;10.50;99.90;;;;;;4930069;28;20506;-75
2023/02/14 11:19:58;;;;;;;41.50;21.10;;;10.50;99.90;;;;;;4947389;28;20021;-80
2023/02/14 11:22:32;;;;;;;47.53;22.10;;;10.50;99.90;;;;;;4945049;28;20113;-79
2023/02/14 11:25:06;;;;;;;52.40;22.65;;;10.60;99.90;;;;;;4925831;28;20048;-79
2023/02/14 11:27:32;;;;;;;46.55;22.08;;;10.70;99.90;;;;;;4944216;28;20028;-67
2023/02/14 11:30:00;;;;;;;47.58;22.45;;;10.80;99.90;;;;;;4945037;28;20025;-74
2023/02/14 11:32:29;;;;;;;45.90;22.40;;;10.80;99.90;;;;;;4919040;28;20025;-67
2023/02/14 11:35:17;;;;;;;42.25;21.02;;;10.90;99.90;;;;;;4935309;28;20054;-67
2023/02/14 11:37:49;;;;;;;50.10;21.52;;;10.90;99.90;;;;;;4927458;28;20907;-73
2023/02/14 11:40:36;;;;;;;43.53;21.50;;;11.00;99.90;;;;;;4964038;28;20037;-67
2023/02/14 11:43:12;;;;;;;44.42;21.60;;;11.20;99.90;;;;;;4960865;28;20017;-68
2023/02/14 11:45:39;;;;;;;43.33;20.55;;;11.30;99.90;;;;;;4934561;28;20074;-77
2023/02/14 11:48:18;;;;;;;41.08;20.33;;;11.60;99.90;;;;;;4976047;28;20017;-78
2023/02/14 11:51:07;;;;;;;43.58;22.10;;;11.80;99.90;;;;;;5036538;28;20669;-78
2023/02/14 11:53:45;;;;;;;41.63;20.08;;;11.80;99.90;;;;;;5051053;28;20532;-78
2023/02/14 11:56:15;;;;;;;40.90;20.80;;;11.90;99.90;;;;;;5052508;28;20046;-78
2023/02/14 11:58:47;;;;;;;39.78;21.25;;;12.00;99.90;;;;;;5054180;28;20029;-74
2023/02/14 12:01:26;;;;;;;43.17;20.75;;;12.10;99.90;;;;;;5053618;28;20350;-76
2023/02/14 12:03:54;;;;;;;39.58;22.20;;;12.10;99.90;;;;;;5054594;28;20086;-78
2023/02/14 12:06:38;;;;;;;40.72;19.33;;;12.30;99.90;;;;;;5052572;28;20035;-77
2023/02/14 12:09:23;;;;;;;40.55;20.45;;;12.30;99.90;;;;;;5043400;28;20021;-79
2023/02/14 12:11:57;;;;;;;42.10;19.80;;;12.40;99.90;;;;;;5035827;28;20028;-79
2023/02/14 12:14:27;;;;;;;40.22;20.95;;;12.40;99.90;;;;;;5053296;28;20539;-79
2023/02/14 12:17:12;;;;;;;44.70;21.08;;;12.50;99.90;;;;;;5051708;28;20537;-77
2023/02/14 12:19:58;;;;;;;46.88;22.08;;;12.50;99.90;;;;;;5041405;28;20427;-79
2023/02/14 12:23:09;;;;;;;46.38;20.70;;;12.50;99.90;;;;;;5038458;28;20052;-78
2023/02/14 12:25:47;;;;;;;44.97;21.42;;;12.50;99.90;;;;;;5046828;28;20169;-80
2023/02/14 12:28:18;;;;;;;44.53;20.95;;;12.60;99.90;;;;;;5048910;28;20044;-79
2023/02/14 12:30:44;;;;;;;47.25;20.98;;;12.60;99.90;;;;;;5051461;28;20041;-78
2023/02/14 12:33:28;;;;;;;43.83;20.80;;;12.70;99.90;;;;;;5030961;28;20037;-78
2023/02/14 12:36:06;;;;;;;37.13;20.13;;;12.80;99.90;;;;;;5032998;28;20087;-79
2023/02/14 12:38:43;;;;;;;42.90;20.40;;;12.90;99.90;;;;;;5046740;28;20021;-80
2023/02/14 12:41:30;;;;;;;37.88;19.38;;;12.90;99.90;;;;;;5043479;28;20154;-75
2023/02/14 12:44:04;;;;;;;39.75;19.90;;;12.90;99.90;;;;;;5045910;28;20030;-76
2023/02/14 12:46:39;;;;;;;41.00;19.38;;;12.90;99.90;;;;;;5041789;28;20176;-77
2023/02/14 12:49:33;;;;;;;42.22;20.73;;;13.00;99.90;;;;;;5046604;28;20026;-80
2023/02/14 12:52:24;;;;;;;39.55;18.85;;;12.90;99.90;;;;;;5050763;28;20108;-78
2023/02/14 12:55:01;;;;;;;38.58;19.08;;;13.10;99.90;;;;;;5049047;28;20116;-71
2023/02/14 12:57:36;;;;;;;42.85;20.52;;;13.10;99.90;;;;;;5042763;28;20018;-79
2023/02/14 13:00:21;;;;;;;41.85;20.45;;;13.20;99.90;;;;;;5050619;28;20021;-79
2023/02/14 13:03:04;;;;;;;43.73;20.03;;;13.20;99.90;;;;;;5041762;28;20039;-78
2023/02/14 13:05:52;;;;;;;36.25;18.90;;;13.30;99.90;;;;;;5030713;28;20033;-74
2023/02/14 13:08:53;;;;;;;41.70;20.20;;;13.40;99.90;;;;;;5045809;28;20529;-79
2023/02/14 13:11:40;;;;;;;41.33;19.48;;;13.30;99.90;;;;;;5034657;28;20036;-80
2023/02/14 13:14:15;;;;;;;39.38;20.20;;;13.20;99.90;;;;;;5047260;28;20317;-67